createdAt,value
2022-10-20T00:06:39.205Z,7.74
2022-10-20T00:16:42.800Z,7.63
2022-10-20T00:26:46.660Z,7.52
2022-10-20T00:36:52.263Z,7.43
2022-10-20T00:46:57.867Z,7.37
2022-10-20T01:07:09.906Z,7.01
2022-10-20T01:17:13.797Z,6.87
2022-10-20T01:27:23.473Z,6.70
2022-10-20T01:37:48.919Z,6.66
2022-10-20T01:47:54.243Z,6.73
2022-10-20T01:58:27.100Z,6.78
2022-10-20T02:08:48.925Z,6.74
2022-10-20T02:18:53.274Z,6.57
2022-10-20T02:29:03.762Z,6.44
2022-10-20T02:39:08.757Z,6.17
2022-10-20T02:49:12.423Z,5.87
2022-10-20T02:59:17.726Z,5.59
2022-10-20T03:09:21.382Z,5.38
2022-10-20T03:19:25.269Z,5.09
2022-10-20T03:29:29.032Z,4.76
2022-10-20T03:39:32.596Z,4.56
2022-10-20T03:49:36.457Z,4.41
2022-10-20T03:59:40.458Z,4.40
2022-10-20T04:09:44.099Z,4.37
2022-10-20T04:19:47.868Z,4.19
2022-10-20T04:29:51.848Z,3.82
2022-10-20T04:39:58.078Z,3.59
2022-10-20T04:50:02.255Z,3.30
2022-10-20T05:00:07.061Z,2.98
2022-10-20T05:10:10.688Z,2.76
2022-10-20T05:20:14.775Z,2.49
2022-10-20T05:30:18.782Z,2.35
2022-10-20T05:40:23.016Z,2.35
2022-10-20T05:50:27.011Z,2.37
2022-10-20T06:00:32.210Z,2.37
2022-10-20T06:10:35.970Z,2.50
2022-10-20T06:20:39.928Z,2.75
2022-10-20T06:30:43.433Z,3.02
2022-10-20T06:40:47.294Z,3.33
2022-10-20T06:50:56.142Z,3.76
2022-10-20T07:01:10.126Z,4.03
2022-10-20T07:11:21.495Z,4.21
2022-10-20T07:21:32.295Z,4.31
2022-10-20T07:31:48.911Z,4.49
2022-10-20T07:41:52.753Z,4.59
2022-10-20T07:51:56.201Z,4.67
2022-10-20T08:02:00.311Z,4.83
2022-10-20T08:12:05.989Z,5.07
2022-10-20T08:22:09.560Z,5.33
2022-10-20T08:32:14.851Z,5.71
2022-10-20T08:42:18.625Z,6.19
2022-10-20T08:52:24.853Z,6.89
2022-10-20T09:02:33.525Z,7.55
2022-10-20T09:12:40.676Z,8.07
2022-10-20T09:22:44.449Z,8.44
2022-10-20T09:32:50.055Z,8.80
2022-10-20T09:43:19.518Z,9.19
2022-10-20T09:53:32.782Z,9.50
2022-10-20T10:03:44.020Z,9.80
2022-10-20T10:13:52.721Z,10.05
2022-10-20T10:24:04.861Z,10.27
2022-10-20T10:34:14.673Z,10.50
2022-10-20T10:44:52.783Z,10.72
2022-10-20T10:55:11.713Z,10.97
2022-10-20T11:05:30.165Z,11.08
2022-10-20T11:16:07.465Z,11.24
2022-10-20T11:26:24.223Z,11.35
2022-10-20T11:36:35.986Z,11.44
2022-10-20T11:47:02.105Z,11.49
2022-10-20T11:57:21.420Z,11.56
2022-10-20T12:07:45.513Z,11.72
2022-10-20T12:17:51.671Z,11.82
2022-10-20T12:28:21.002Z,11.83
2022-10-20T12:38:26.388Z,11.93
2022-10-20T12:48:36.164Z,11.93
2022-10-20T12:59:20.710Z,11.93
2022-10-20T13:09:25.483Z,11.87
2022-10-20T13:19:45.320Z,11.84
2022-10-20T13:29:49.402Z,11.78
2022-10-20T13:39:56.347Z,11.64
2022-10-20T13:50:14.274Z,11.57
2022-10-20T14:00:26.935Z,11.45
2022-10-20T14:11:00.338Z,11.30
2022-10-20T14:21:09.034Z,11.14
2022-10-20T14:31:14.629Z,10.93
2022-10-20T14:41:32.004Z,10.62
2022-10-20T14:51:45.477Z,10.28
2022-10-20T15:02:02.491Z,9.81
2022-10-20T15:12:08.699Z,9.39
2022-10-20T15:32:22.891Z,8.46
2022-10-20T15:42:27.062Z,7.88
2022-10-20T15:52:31.354Z,7.40
2022-10-20T16:02:36.740Z,6.85
2022-10-20T16:12:44.496Z,6.37
2022-10-20T16:22:48.575Z,5.90
2022-10-20T16:32:52.646Z,5.46
2022-10-20T16:42:56.825Z,5.09
2022-10-20T16:53:01.950Z,4.75
2022-10-20T17:03:06.721Z,4.46
2022-10-20T17:13:11.109Z,4.07
2022-10-20T17:23:15.813Z,3.74
2022-10-20T17:33:21.130Z,3.52
2022-10-20T17:43:29.084Z,3.32
2022-10-20T17:53:35.692Z,3.15
2022-10-20T18:03:43.696Z,2.95
2022-10-20T18:13:49.771Z,2.73
2022-10-20T18:24:05.834Z,2.53
2022-10-20T18:34:15.558Z,2.23
2022-10-20T18:44:21.248Z,2.02
2022-10-20T18:54:26.945Z,1.97
2022-10-20T19:04:31.836Z,1.80
2022-10-20T19:14:38.585Z,1.63
2022-10-20T19:24:48.939Z,1.48
2022-10-20T19:34:53.593Z,1.52
2022-10-20T19:44:58.774Z,1.52
2022-10-20T19:55:03.803Z,1.29
2022-10-20T20:05:09.999Z,1.05
2022-10-20T20:15:16.227Z,0.91
2022-10-20T20:25:20.264Z,0.91
2022-10-20T20:35:24.882Z,0.83
2022-10-20T20:45:29.572Z,0.78
2022-10-20T20:55:33.584Z,0.72
2022-10-20T21:05:38.335Z,0.57
2022-10-20T21:15:41.998Z,0.43
2022-10-20T21:25:47.109Z,0.37
2022-10-20T21:35:50.957Z,0.35
2022-10-20T21:45:55.051Z,0.33
2022-10-20T21:55:59.315Z,0.30
2022-10-20T22:06:03.711Z,0.30
2022-10-20T22:16:10.628Z,0.22
2022-10-20T22:26:15.196Z,0.11
2022-10-20T22:36:20.436Z,-0.01
2022-10-20T22:46:24.666Z,-0.06
2022-10-20T22:56:28.696Z,-0.19
2022-10-20T23:06:32.665Z,-0.17
2022-10-20T23:16:36.568Z,-0.17
2022-10-20T23:26:40.706Z,-0.26
2022-10-20T23:36:44.380Z,-0.25
2022-10-20T23:46:48.040Z,-0.26
2022-10-20T23:56:51.838Z,-0.38
